Four Oaks, Kentucky
Current Conditions -  °F | °C
As of 11:53 PM on Tuesday 21 Oct 2014 (Local Time) from KLUK Reporting Station
Overcast Overcast  
Wind Chill: 44°   Ceiling: 4700
Heat Index: 48°   Visibility: 10mi
Dew Point: 38°   Wind: 8mph
Humidity: 68%   Direction: 20°NNE
Pressure: 30.2"   Gusts: NA
Location:  38.6506°N, 84.351°W
Report Text: KLUK 220353Z AUTO 02007KT 10SM OVC047 09/03 A3020 RMK AO2 SLP226 T00890033
Loading
Personal Weather Stations






























Interactive Weather Map
Tropical Storm Tracking
New forecast layout! Learn more

10-Day Weather Forecast

Advertisements
Track Severe Weather on mobile